Time;durP1;ratioP1;P1;durP2;ratioP2;P2;SDS_P1;SDS_P2;PMS_P1;PMS_P2;Temp;Humidity;BMP_temperature;BMP_pressure;BME280_temperature;BME280_humidity;BME280_pressure;Samples;Min_cycle;Max_cycle;Signal;HPM_P1;HPM_P2
2021/01/14 00:00:40;;;;;;;6.47;4.60;;;5.60;94.70;;;4.97;88.91;97787.75;5068471;28;20632;-73
2021/01/14 00:03:12;;;;;;;6.47;4.67;;;5.50;95.00;;;4.97;89.53;97792.91;5051109;28;20617;-73
2021/01/14 00:05:40;;;;;;;6.27;4.50;;;5.50;94.70;;;4.96;89.09;97793.81;5062745;28;20616;-73
2021/01/14 00:08:10;;;;;;;4.97;3.80;;;5.50;94.80;;;4.90;89.91;97813.06;5068209;28;20657;-73
2021/01/14 00:10:39;;;;;;;5.23;4.33;;;5.40;94.80;;;4.91;88.75;97824.22;5070232;28;20702;-73
2021/01/14 00:13:07;;;;;;;4.60;4.10;;;5.40;94.80;;;4.96;89.15;97828.25;5069621;28;20676;-73
2021/01/14 00:15:35;;;;;;;5.40;4.40;;;5.40;94.90;;;4.93;89.01;97824.97;5070704;28;20628;-73
2021/01/14 00:18:04;;;;;;;5.53;4.37;;;5.40;94.70;;;5.00;88.90;97826.34;5068806;28;20747;-73
2021/01/14 00:20:31;;;;;;;6.10;4.80;;;5.50;94.70;;;4.97;88.56;97824.75;5059578;28;20682;-73
2021/01/14 00:22:59;;;;;;;6.23;4.60;;;5.50;94.60;;;4.97;89.02;97829.09;5062807;28;20733;-73
2021/01/14 00:25:27;;;;;;;7.60;4.50;;;5.40;94.50;;;4.98;89.25;97820.44;5070378;28;20632;-73
2021/01/14 00:27:55;;;;;;;5.83;3.87;;;5.50;94.60;;;4.97;88.64;97811.00;5067720;28;20663;-73
2021/01/14 00:30:28;;;;;;;5.70;4.30;;;5.40;94.50;;;4.97;88.98;97818.75;5069555;28;20675;-73
2021/01/14 00:32:59;;;;;;;5.93;4.80;;;5.50;94.50;;;4.97;88.83;97826.50;5061621;28;20677;-73
2021/01/14 00:35:28;;;;;;;5.63;4.10;;;5.50;94.40;;;4.99;88.13;97842.75;5069601;28;20678;-73
2021/01/14 00:37:55;;;;;;;6.37;4.50;;;5.50;94.50;;;4.95;88.60;97841.25;5075699;28;20625;-73
2021/01/14 00:40:26;;;;;;;6.07;4.30;;;5.50;94.40;;;4.95;89.02;97821.41;5070633;28;20631;-73
2021/01/14 00:43:00;;;;;;;6.03;4.20;;;5.50;94.40;;;4.97;88.96;97816.16;5067040;28;21246;-73
2021/01/14 00:45:29;;;;;;;7.27;4.97;;;5.50;94.50;;;4.97;88.87;97816.16;5060962;28;20654;-73
2021/01/14 00:47:57;;;;;;;6.60;4.87;;;5.50;94.30;;;4.97;87.96;97818.75;5069628;28;21041;-71
2021/01/14 00:50:26;;;;;;;5.43;4.40;;;5.50;94.30;;;4.93;88.92;97812.06;5060612;28;20737;-71
2021/01/14 00:52:54;;;;;;;8.10;6.70;;;5.40;94.20;;;4.92;89.10;97831.06;5073463;28;20724;-71
2021/01/14 00:55:22;;;;;;;5.67;4.40;;;5.40;94.20;;;4.92;88.04;97837.06;5065984;28;20632;-71
2021/01/14 00:57:50;;;;;;;5.70;4.37;;;5.40;94.20;;;4.88;88.66;97829.53;5072888;28;20616;-70
2021/01/14 01:00:22;;;;;;;5.60;4.53;;;5.40;94.30;;;4.92;88.32;97846.56;5070707;28;20655;-70
2021/01/14 01:02:53;;;;;;;5.43;4.27;;;5.40;94.30;;;4.90;88.71;97858.72;5072754;28;20635;-70
2021/01/14 01:05:21;;;;;;;4.63;3.43;;;5.40;94.30;;;4.91;88.83;97856.06;5064640;28;21230;-70
2021/01/14 01:07:51;;;;;;;5.87;4.50;;;5.40;94.30;;;4.92;89.02;97836.25;5073341;28;20734;-70
2021/01/14 01:10:19;;;;;;;6.60;5.07;;;5.40;94.30;;;4.93;88.48;97832.72;5072352;28;20714;-70
2021/01/14 01:12:51;;;;;;;5.90;4.50;;;5.40;94.30;;;4.94;88.77;97855.06;5087260;28;20631;-70
2021/01/14 01:15:20;;;;;;;5.78;4.85;;;5.40;94.30;;;4.93;88.60;97855.97;5063091;28;20851;-70
2021/01/14 01:17:48;;;;;;;5.93;4.37;;;5.40;94.30;;;4.90;88.32;97853.53;5071098;28;20730;-70
2021/01/14 01:20:15;;;;;;;5.70;4.30;;;5.40;94.30;;;4.91;88.99;97857.81;5064853;28;20701;-70
2021/01/14 01:22:44;;;;;;;5.20;4.30;;;5.40;94.30;;;4.93;88.53;97868.88;5061088;28;20636;-70
2021/01/14 01:25:12;;;;;;;5.50;4.23;;;5.40;94.30;;;4.96;89.17;97855.81;5069189;28;21162;-70
2021/01/14 01:27:40;;;;;;;4.70;4.20;;;5.40;94.20;;;5.02;88.16;97863.25;5067527;28;20691;-70
2021/01/14 01:30:09;;;;;;;5.40;4.00;;;5.50;94.00;;;5.01;87.75;97859.03;5067500;28;20747;-70
2021/01/14 01:32:37;;;;;;;8.27;4.47;;;5.50;93.80;;;5.06;87.76;97849.28;5069293;28;20636;-70
2021/01/14 01:35:07;;;;;;;6.17;4.00;;;5.50;93.70;;;5.08;87.48;97850.88;5073405;28;20620;-70
2021/01/14 01:37:34;;;;;;;6.63;4.07;;;5.60;93.60;;;5.11;86.44;97850.72;5058356;28;21246;-70
2021/01/14 01:40:03;;;;;;;5.60;4.20;;;5.60;93.30;;;5.16;86.32;97847.00;5071270;28;21285;-70
2021/01/14 01:42:31;;;;;;;5.50;4.30;;;5.60;93.30;;;5.13;86.63;97862.66;5060925;28;20682;-71
2021/01/14 01:45:01;;;;;;;5.80;3.70;;;5.60;93.30;;;5.12;86.63;97864.50;5063101;28;20656;-71
2021/01/14 01:47:33;;;;;;;7.40;4.20;;;5.60;93.40;;;5.12;86.86;97867.91;5071665;28;20739;-71
2021/01/14 01:50:07;;;;;;;4.93;3.93;;;5.70;93.50;;;5.16;87.46;97872.00;5071955;28;20709;-70
2021/01/14 01:52:35;;;;;;;5.67;4.03;;;5.70;93.40;;;5.17;87.09;97866.75;5071756;28;20641;-70
2021/01/14 01:55:05;;;;;;;5.37;4.13;;;5.70;93.40;;;5.18;87.01;97871.00;5071767;28;20723;-70
2021/01/14 01:57:32;;;;;;;4.80;3.87;;;5.70;93.40;;;5.20;87.54;97876.94;5073901;28;20611;-70
2021/01/14 02:00:00;;;;;;;4.63;4.13;;;5.80;93.30;;;5.22;86.86;97877.69;5071332;28;20655;-70
2021/01/14 02:02:29;;;;;;;5.10;4.30;;;5.80;93.30;;;5.20;86.23;97879.53;5071313;28;20702;-70
2021/01/14 02:04:58;;;;;;;6.53;4.03;;;5.70;93.10;;;5.21;86.77;97881.19;5073879;28;20608;-70
2021/01/14 02:07:38;;;;;;;6.00;4.20;;;5.70;93.10;;;5.22;86.77;97875.09;5063710;28;20654;-70
2021/01/14 02:10:13;;;;;;;6.13;5.33;;;5.70;93.10;;;5.22;87.19;97882.84;5071472;28;20754;-70
2021/01/14 02:12:57;;;;;;;5.53;4.00;;;5.70;93.10;;;5.25;86.81;97882.72;5068961;28;20667;-70
2021/01/14 02:15:27;;;;;;;5.07;3.70;;;5.80;93.10;;;5.25;85.99;97882.72;5056353;28;21061;-70
2021/01/14 02:17:55;;;;;;;6.03;4.20;;;5.80;93.00;;;5.26;86.50;97893.88;5065772;28;20629;-70
2021/01/14 02:20:23;;;;;;;4.70;3.63;;;5.80;92.90;;;5.24;86.43;97885.38;5067118;28;20664;-70
2021/01/14 02:23:00;;;;;;;5.00;3.67;;;5.80;92.90;;;5.22;86.42;97885.44;5068406;28;20697;-70
2021/01/14 02:25:39;;;;;;;6.33;3.80;;;5.70;92.80;;;5.30;86.06;97896.22;5064698;28;20673;-70
2021/01/14 02:28:08;;;;;;;5.13;3.43;;;5.80;92.80;;;5.25;85.51;97889.63;5060316;28;20673;-70
2021/01/14 02:30:36;;;;;;;8.17;3.30;;;5.80;92.60;;;5.23;85.17;97887.13;5052822;28;20762;-70
2021/01/14 02:33:03;;;;;;;6.80;3.53;;;5.80;92.50;;;5.20;85.48;97887.28;5070507;28;20663;-70
2021/01/14 02:35:31;;;;;;;3.63;3.17;;;5.70;92.30;;;5.23;84.81;97894.03;5066914;28;21029;-70
2021/01/14 02:37:58;;;;;;;4.10;2.77;;;5.70;92.30;;;5.26;85.22;97886.13;5087427;28;20655;-70
2021/01/14 02:40:26;;;;;;;5.93;3.57;;;5.80;92.10;;;5.18;85.68;97896.00;5059312;28;20631;-70
2021/01/14 02:42:53;;;;;;;5.50;4.30;;;5.70;92.00;;;5.16;85.46;97893.50;5072146;28;20624;-70
2021/01/14 02:45:22;;;;;;;4.77;2.93;;;5.70;92.10;;;5.20;85.03;97900.22;5071080;28;20659;-70
2021/01/14 02:47:51;;;;;;;5.00;3.53;;;5.70;92.00;;;5.14;84.51;97897.94;5071828;28;21048;-70
2021/01/14 02:50:19;;;;;;;4.80;3.27;;;5.70;92.00;;;5.12;85.51;97903.25;5059375;28;20640;-70
2021/01/14 02:52:48;;;;;;;6.00;3.30;;;5.60;92.00;;;5.08;84.79;97915.47;5067333;28;20617;-70
2021/01/14 02:55:17;;;;;;;5.10;3.10;;;5.60;92.00;;;5.09;85.07;97921.50;5069373;28;20642;-70
2021/01/14 02:57:46;;;;;;;4.83;4.27;;;5.60;92.10;;;5.10;85.28;97917.97;5070354;28;20701;-70
2021/01/14 03:00:14;;;;;;;6.00;3.47;;;5.60;92.00;;;5.09;84.65;97900.81;5066764;28;20718;-70
2021/01/14 03:02:43;;;;;;;5.10;3.20;;;5.60;92.10;;;5.06;85.01;97899.22;5070132;28;21223;-70
2021/01/14 03:05:11;;;;;;;5.43;3.30;;;5.60;92.10;;;5.07;85.26;97903.47;5065142;28;20683;-70
2021/01/14 03:07:39;;;;;;;5.27;3.40;;;5.60;92.10;;;5.04;85.77;97890.72;5059042;28;20627;-70
2021/01/14 03:10:08;;;;;;;4.13;3.10;;;5.60;92.00;;;5.12;84.78;97905.84;5071405;28;20651;-70
2021/01/14 03:12:36;;;;;;;8.27;3.33;;;5.60;92.10;;;5.07;85.49;97903.47;5067784;28;20786;-70
2021/01/14 03:15:05;;;;;;;5.43;3.43;;;5.60;92.20;;;5.05;86.02;97904.44;5084157;28;21230;-70
2021/01/14 03:17:36;;;;;;;5.63;3.70;;;5.60;92.20;;;5.05;85.60;97915.66;5070588;28;20734;-70
2021/01/14 03:20:08;;;;;;;5.50;3.27;;;5.50;92.20;;;5.05;86.02;97920.81;5067400;28;20644;-70
2021/01/14 03:22:40;;;;;;;7.07;3.63;;;5.60;92.30;;;4.95;85.55;97914.41;5058644;28;20995;-70
2021/01/14 03:25:10;;;;;;;5.63;3.23;;;5.50;92.50;;;4.95;86.92;97913.59;5066512;28;21191;-70
2021/01/14 03:27:40;;;;;;;5.53;3.67;;;5.50;92.70;;;4.92;86.57;97917.16;5071306;28;20659;-70
2021/01/14 03:30:12;;;;;;;7.97;4.00;;;5.50;92.90;;;4.92;87.32;97919.72;5064316;28;20647;-70
2021/01/14 03:32:40;;;;;;;5.07;4.00;;;5.40;92.90;;;4.94;86.74;97910.16;5068469;28;20846;-70
2021/01/14 03:35:10;;;;;;;5.80;4.07;;;5.40;93.10;;;4.98;87.02;97911.69;5067034;28;20233;-70
2021/01/14 03:37:38;;;;;;;4.93;3.40;;;5.50;93.20;;;5.01;87.34;97906.38;5056495;28;20681;-70
2021/01/14 03:40:09;;;;;;;6.50;3.97;;;5.50;93.10;;;4.98;87.34;97905.69;5070017;28;20647;-70
2021/01/14 03:42:38;;;;;;;7.07;3.80;;;5.50;93.00;;;5.08;85.52;97915.47;5066900;28;21364;-70
2021/01/14 03:45:07;;;;;;;10.13;4.00;;;5.60;92.80;;;5.04;85.93;97918.31;5070179;28;20641;-70
2021/01/14 03:47:35;;;;;;;6.17;3.97;;;5.50;92.60;;;5.01;85.86;97918.47;5069178;28;20656;-70
2021/01/14 03:50:08;;;;;;;5.40;3.63;;;5.50;92.60;;;5.02;86.06;97920.97;5070910;28;21138;-70
2021/01/14 03:52:36;;;;;;;5.53;3.83;;;5.50;92.60;;;5.00;86.77;97927.94;5070027;28;20632;-70
2021/01/14 03:55:04;;;;;;;6.20;3.87;;;5.50;92.60;;;4.97;86.60;97927.25;5062576;28;20636;-70
2021/01/14 03:57:36;;;;;;;5.03;3.33;;;5.50;92.60;;;5.02;86.35;97931.31;5065404;28;21252;-70
2021/01/14 04:00:06;;;;;;;6.00;4.00;;;5.50;92.60;;;5.02;86.49;97925.28;5062316;28;21039;-70
2021/01/14 04:02:40;;;;;;;7.53;4.20;;;5.50;92.50;;;5.01;86.49;97928.78;5069365;28;20638;-70
2021/01/14 04:05:11;;;;;;;4.50;3.50;;;5.50;92.50;;;5.05;85.56;97933.72;5070280;28;20639;-70
2021/01/14 04:07:39;;;;;;;6.83;4.40;;;5.50;92.30;;;5.06;85.08;97944.91;5065556;28;20632;-70
2021/01/14 04:10:07;;;;;;;6.90;4.10;;;5.50;92.20;;;5.02;85.79;97945.94;5062916;28;21044;-70
2021/01/14 04:12:35;;;;;;;6.00;3.53;;;5.50;92.20;;;5.01;85.07;97950.28;5069945;28;20645;-70
2021/01/14 04:15:04;;;;;;;4.70;3.70;;;5.50;92.30;;;5.05;85.03;97950.97;5065258;28;20640;-70
2021/01/14 04:17:32;;;;;;;5.90;3.60;;;5.50;92.30;;;5.02;84.86;97956.28;5051741;28;20632;-70
2021/01/14 04:20:00;;;;;;;6.93;3.80;;;5.50;92.10;;;5.06;84.76;97953.47;5069782;28;21057;-70
2021/01/14 04:22:28;;;;;;;6.40;4.13;;;5.60;92.20;;;5.04;85.18;97954.47;5071479;28;21177;-70
2021/01/14 04:25:02;;;;;;;6.47;3.80;;;5.60;92.10;;;5.03;84.80;97960.53;5068369;28;20637;-70
2021/01/14 04:27:31;;;;;;;5.90;4.73;;;5.60;92.20;;;5.01;85.53;97967.53;5069896;28;20660;-70
2021/01/14 04:30:00;;;;;;;5.97;3.87;;;5.50;92.10;;;5.02;85.95;97969.19;5069292;28;20717;-70
2021/01/14 04:32:31;;;;;;;7.50;4.60;;;5.50;92.10;;;5.02;84.99;97976.94;5056948;28;21195;-70
2021/01/14 04:34:59;;;;;;;5.53;4.47;;;5.50;92.10;;;5.02;86.12;97974.38;5055661;28;20631;-70
2021/01/14 04:37:29;;;;;;;6.40;4.50;;;5.50;92.20;;;5.07;85.60;97975.00;5070238;28;20639;-70
2021/01/14 04:39:56;;;;;;;5.67;4.40;;;5.60;92.30;;;5.10;85.23;97985.16;5057888;28;20668;-70
2021/01/14 04:42:29;;;;;;;5.17;4.00;;;5.60;92.30;;;5.09;85.15;97979.16;5057114;28;20629;-70
2021/01/14 04:44:57;;;;;;;11.30;4.70;;;5.60;92.20;;;5.12;85.12;97984.19;5070840;28;20665;-70
2021/01/14 04:47:27;;;;;;;7.47;4.50;;;5.60;92.30;;;5.12;85.36;97985.94;5064802;28;20667;-70
2021/01/14 04:49:58;;;;;;;5.20;4.00;;;5.70;92.30;;;5.15;86.17;97984.03;5065178;28;20718;-70
2021/01/14 04:52:30;;;;;;;6.33;4.80;;;5.70;92.40;;;5.16;85.31;97981.38;5059641;28;20636;-70
2021/01/14 04:55:02;;;;;;;5.43;4.80;;;5.70;92.40;;;5.19;86.11;97988.16;5065895;28;20731;-70
2021/01/14 04:57:30;;;;;;;9.90;5.00;;;5.70;92.40;;;5.19;86.39;97996.72;5067801;28;20676;-70
2021/01/14 05:00:02;;;;;;;7.07;4.67;;;5.70;92.40;;;5.20;85.87;97993.25;5068045;28;20628;-70
2021/01/14 05:02:43;;;;;;;5.70;5.10;;;5.70;92.30;;;5.18;85.89;98005.38;5051182;28;20605;-70
2021/01/14 05:05:13;;;;;;;6.77;4.50;;;5.70;92.30;;;5.19;85.87;97999.31;5058220;28;20638;-70
2021/01/14 05:07:54;;;;;;;5.80;4.30;;;5.70;92.20;;;5.19;85.55;97990.75;5068703;28;21358;-70
2021/01/14 05:10:23;;;;;;;6.63;4.87;;;5.70;92.30;;;5.18;85.43;97992.47;5069138;28;20659;-70
2021/01/14 05:12:55;;;;;;;6.00;4.90;;;5.70;92.20;;;5.18;85.51;97983.88;5059915;28;20671;-70
2021/01/14 05:15:26;;;;;;;7.93;4.77;;;5.80;92.30;;;5.19;85.33;97996.72;5067163;28;20763;-70
2021/01/14 05:17:55;;;;;;;6.07;4.53;;;5.80;92.20;;;5.16;85.58;97996.06;5070504;28;20697;-70
2021/01/14 05:20:23;;;;;;;8.20;4.70;;;5.70;92.10;;;5.13;85.94;97991.88;5066003;28;20634;-70
2021/01/14 05:22:58;;;;;;;6.13;4.53;;;5.70;92.00;;;5.13;85.30;98001.38;5066506;28;20742;-72
2021/01/14 05:25:26;;;;;;;6.57;4.50;;;5.70;92.00;;;5.13;85.42;98014.28;5069427;28;20660;-72
2021/01/14 05:27:54;;;;;;;8.10;5.03;;;5.70;92.10;;;5.12;85.83;98020.38;5068618;28;21029;-72
2021/01/14 05:30:23;;;;;;;8.93;5.47;;;5.70;92.00;;;5.13;85.59;98018.59;5067949;28;20689;-72
2021/01/14 05:32:50;;;;;;;5.50;4.53;;;5.70;92.40;;;5.15;84.89;98031.38;5069429;28;20730;-72
2021/01/14 05:35:29;;;;;;;6.03;4.73;;;5.70;92.10;;;5.19;84.70;98037.25;5068110;28;21025;-72
2021/01/14 05:38:03;;;;;;;9.80;5.70;;;5.70;91.90;;;5.16;85.02;98035.66;5065939;28;20632;-72
2021/01/14 05:40:31;;;;;;;9.17;5.13;;;5.70;91.90;;;5.12;85.60;98040.22;5072815;28;20680;-73
2021/01/14 05:43:05;;;;;;;6.70;5.10;;;5.70;92.00;;;5.11;85.76;98033.34;5073356;28;20723;-73
2021/01/14 05:45:34;;;;;;;9.97;5.70;;;5.70;92.00;;;5.07;86.04;98037.00;5064842;28;20636;-73
2021/01/14 05:48:10;;;;;;;8.73;5.47;;;5.60;92.00;;;5.08;85.68;98041.25;5072143;28;20633;-73
2021/01/14 05:50:44;;;;;;;5.20;4.50;;;5.60;92.10;;;5.07;85.31;98031.84;5071352;28;21217;-73
2021/01/14 05:53:17;;;;;;;8.10;5.70;;;5.60;92.10;;;5.05;85.27;98018.16;5071417;28;20654;-73
2021/01/14 05:55:46;;;;;;;10.30;5.37;;;5.60;92.10;;;5.03;85.12;98018.22;5084677;28;21184;-73
2021/01/14 05:58:18;;;;;;;8.50;5.50;;;5.50;92.10;;;5.00;85.66;98009.78;5067844;28;21011;-73
2021/01/14 06:00:48;;;;;;;13.17;8.40;;;5.50;92.10;;;4.95;86.00;98006.59;5072731;28;21021;-73
2021/01/14 06:03:27;;;;;;;8.60;5.37;;;5.40;92.10;;;4.93;86.23;98022.16;5072655;28;20677;-73
2021/01/14 06:05:55;;;;;;;8.03;5.20;;;5.40;92.20;;;4.89;86.23;98019.78;5063146;28;20987;-73
2021/01/14 06:08:27;;;;;;;6.00;4.33;;;5.40;92.40;;;4.90;86.67;98044.69;5069470;28;20718;-73
2021/01/14 06:10:55;;;;;;;8.10;5.80;;;5.40;92.60;;;4.93;86.80;98057.47;5067806;28;20686;-73
2021/01/14 06:13:39;;;;;;;6.63;5.10;;;5.40;92.70;;;4.97;87.09;98046.09;5072157;28;21178;-73
2021/01/14 06:16:08;;;;;;;7.20;5.60;;;5.50;92.70;;;4.98;86.65;98040.88;5063161;28;20639;-73
2021/01/14 06:18:36;;;;;;;6.67;5.10;;;5.50;92.70;;;5.01;86.61;98047.66;5071676;28;20639;-73
2021/01/14 06:21:04;;;;;;;6.50;4.93;;;5.50;92.70;;;5.03;85.79;98050.97;5071293;28;20689;-73
2021/01/14 06:23:46;;;;;;;5.97;5.03;;;5.50;92.60;;;5.01;86.47;98047.66;5065073;28;20968;-73
2021/01/14 06:26:27;;;;;;;7.23;5.17;;;5.50;92.50;;;4.98;86.07;98052.94;5066318;28;20631;-73
2021/01/14 06:28:56;;;;;;;7.73;5.50;;;5.50;92.50;;;4.95;86.60;98064.25;5071270;28;20740;-73
2021/01/14 06:31:27;;;;;;;5.73;5.07;;;5.50;92.50;;;4.95;86.16;98069.41;5072734;28;20750;-73
2021/01/14 06:33:55;;;;;;;7.63;5.67;;;5.50;92.60;;;4.99;86.50;98070.97;5071485;28;21186;-73
2021/01/14 06:36:33;;;;;;;8.40;5.40;;;5.50;92.60;;;4.98;86.84;98068.47;5066538;28;20628;-73
2021/01/14 06:39:12;;;;;;;9.47;5.50;;;5.50;92.50;;;4.96;86.54;98080.59;5053942;28;20631;-73
2021/01/14 06:41:42;;;;;;;8.20;5.20;;;5.50;92.80;;;4.92;86.07;98084.25;5071999;28;20629;-73
2021/01/14 06:44:12;;;;;;;8.70;5.50;;;5.50;92.50;;;4.92;86.46;98097.16;5071536;28;20635;-73
2021/01/14 06:46:41;;;;;;;6.13;5.30;;;5.50;92.50;;;4.91;86.33;98104.03;5070914;28;20650;-73
2021/01/14 06:49:14;;;;;;;6.73;5.17;;;5.40;92.50;;;4.93;85.65;98096.22;5086892;28;20708;-73
2021/01/14 06:51:57;;;;;;;6.60;5.20;;;5.50;92.50;;;4.93;85.92;98110.00;5062670;28;20645;-73
2021/01/14 06:54:27;;;;;;;7.40;5.67;;;5.50;92.50;;;4.95;85.90;98108.19;5068330;28;20713;-73
2021/01/14 06:56:58;;;;;;;8.27;5.60;;;5.50;92.50;;;4.97;86.10;98098.59;5052253;28;20688;-73
2021/01/14 06:59:26;;;;;;;6.33;5.27;;;5.50;92.40;;;4.96;85.27;98096.94;5065887;28;21089;-72
2021/01/14 07:02:40;;;;;;;8.00;5.53;;;5.50;92.20;;;5.02;85.28;98104.41;5062311;28;20679;-72
2021/01/14 07:05:12;;;;;;;5.73;5.13;;;5.50;92.20;;;4.95;86.03;98112.50;5070797;28;20639;-72
2021/01/14 07:07:46;;;;;;;10.07;5.80;;;5.50;92.10;;;4.86;85.16;98120.69;5059855;28;20632;-73
2021/01/14 07:10:16;;;;;;;6.80;5.77;;;5.40;92.00;;;4.77;86.29;98132.25;5057360;28;20644;-73
2021/01/14 07:12:45;;;;;;;7.80;5.60;;;5.30;92.10;;;4.82;86.08;98137.22;5064992;28;20664;-73
2021/01/14 07:15:15;;;;;;;6.73;5.87;;;5.30;92.30;;;4.79;86.88;98119.28;5061007;28;20948;-73
2021/01/14 07:17:45;;;;;;;7.53;6.67;;;5.30;92.40;;;4.79;85.95;98124.44;5072206;28;20624;-73
2021/01/14 07:20:15;;;;;;;8.63;5.27;;;5.30;92.50;;;4.68;86.64;98129.25;5072770;28;21173;-73
2021/01/14 07:22:51;;;;;;;7.40;6.00;;;5.20;92.50;;;4.68;86.37;98132.66;5073046;28;20626;-73
2021/01/14 07:25:21;;;;;;;9.33;6.80;;;5.20;92.80;;;4.72;86.76;98151.44;5071995;28;20612;-70
2021/01/14 07:27:50;;;;;;;7.63;6.53;;;5.20;92.80;;;4.73;86.87;98151.38;5066472;28;20658;-70
2021/01/14 07:30:19;;;;;;;7.47;6.10;;;5.30;92.90;;;4.82;86.97;98150.13;5066890;28;20628;-70
2021/01/14 07:32:55;;;;;;;9.33;6.87;;;5.30;92.90;;;4.80;86.66;98144.22;5064192;28;20624;-71
2021/01/14 07:35:44;;;;;;;7.47;6.30;;;5.30;92.80;;;4.78;85.90;98151.16;5065091;28;20631;-71
2021/01/14 07:38:13;;;;;;;10.47;7.50;;;5.40;92.80;;;4.79;86.83;98150.28;5061588;28;20640;-71
2021/01/14 07:41:00;;;;;;;9.83;6.90;;;5.30;93.00;;;4.85;86.64;98158.56;5065312;28;20619;-72
2021/01/14 07:43:32;;;;;;;11.17;8.23;;;5.40;92.60;;;4.77;86.38;98155.50;5068970;28;20628;-70
2021/01/14 07:46:23;;;;;;;10.17;8.90;;;5.30;92.50;;;4.74;85.86;98150.47;5061497;28;20636;-71
2021/01/14 07:48:53;;;;;;;14.90;10.73;;;5.30;92.60;;;4.75;87.12;98153.88;5057774;28;21052;-71
2021/01/14 07:51:24;;;;;;;17.40;11.93;;;5.30;92.70;;;4.75;87.12;98157.31;5063286;28;20697;-71
2021/01/14 07:54:06;;;;;;;27.47;15.47;;;5.30;92.70;;;4.77;85.91;98170.16;5064323;28;20635;-71
2021/01/14 07:56:49;;;;;;;9.27;7.57;;;5.30;92.60;;;4.76;86.17;98181.41;5058216;28;20628;-71
2021/01/14 07:59:27;;;;;;;11.60;9.10;;;5.30;92.60;;;4.74;86.67;98178.88;5055763;28;20665;-71
2021/01/14 08:02:07;;;;;;;9.90;7.20;;;5.30;92.60;;;4.75;85.88;98185.72;5065207;28;20631;-71
2021/01/14 08:04:45;;;;;;;9.77;7.03;;;5.30;92.70;;;4.77;86.95;98183.91;5068025;28;20671;-71
2021/01/14 08:07:25;;;;;;;8.33;6.73;;;5.30;92.60;;;4.77;86.92;98181.34;5064019;28;20639;-71
2021/01/14 08:09:53;;;;;;;8.97;6.93;;;5.30;92.60;;;4.78;86.50;98185.59;5058539;28;20640;-70
2021/01/14 08:12:28;;;;;;;8.23;6.93;;;5.30;92.60;;;4.77;86.82;98191.66;5063738;28;20656;-71
2021/01/14 08:14:56;;;;;;;8.10;6.73;;;5.30;92.60;;;4.75;86.81;98190.91;5067173;28;20639;-70
2021/01/14 08:17:27;;;;;;;9.77;7.40;;;5.20;92.50;;;4.78;86.63;98192.50;5063891;28;20704;-71
2021/01/14 08:19:55;;;;;;;10.20;8.00;;;5.30;92.60;;;4.80;85.81;98182.94;5062296;28;20745;-71
2021/01/14 08:22:24;;;;;;;10.73;7.23;;;5.30;92.60;;;4.80;85.97;98193.28;5059847;28;20632;-71
2021/01/14 08:24:54;;;;;;;9.43;6.73;;;5.30;92.50;;;4.80;86.25;98198.44;5069229;28;20638;-70
2021/01/14 08:27:29;;;;;;;9.63;7.03;;;5.30;92.40;;;4.75;86.07;98200.38;5067252;28;20639;-70
2021/01/14 08:30:00;;;;;;;10.17;7.13;;;5.30;92.40;;;4.74;86.26;98194.38;5066711;28;20635;-71
2021/01/14 08:32:40;;;;;;;10.70;7.40;;;5.30;92.50;;;4.80;85.92;98188.94;5067093;28;20950;-71
2021/01/14 08:35:32;;;;;;;8.40;6.47;;;5.30;92.50;;;4.82;85.71;98192.28;5057068;28;20633;-73
2021/01/14 08:38:03;;;;;;;9.97;7.03;;;5.30;92.30;;;4.79;85.53;98207.09;5061833;28;20649;-74
2021/01/14 08:40:33;;;;;;;11.30;6.53;;;5.30;92.10;;;4.78;85.75;98195.94;5069573;28;20739;-74
2021/01/14 08:43:07;;;;;;;10.70;6.93;;;5.30;92.20;;;4.80;85.67;98195.88;5071058;28;20627;-74
2021/01/14 08:45:37;;;;;;;9.80;6.67;;;5.30;92.10;;;4.80;85.00;98206.19;5061322;28;20681;-75
2021/01/14 08:48:07;;;;;;;9.60;6.87;;;5.30;92.10;;;4.81;85.76;98210.44;5072114;28;20612;-74
2021/01/14 08:50:47;;;;;;;12.60;7.60;;;5.30;92.40;;;4.84;84.73;98220.63;5070090;28;20670;-73
2021/01/14 08:53:29;;;;;;;13.40;8.43;;;5.40;92.10;;;4.85;85.73;98236.06;5067018;28;20636;-73
2021/01/14 08:55:59;;;;;;;12.80;9.50;;;5.40;92.00;;;4.88;84.96;98225.59;5067651;28;20627;-74
2021/01/14 08:58:41;;;;;;;13.30;9.23;;;5.40;91.90;;;4.88;85.25;98222.19;5068916;28;20670;-74
2021/01/14 09:01:16;;;;;;;10.77;7.57;;;5.30;91.80;;;4.90;84.79;98216.06;5067844;28;20624;-74
2021/01/14 09:03:45;;;;;;;7.80;6.50;;;5.40;91.70;;;4.82;83.62;98207.78;5070576;28;20989;-74
2021/01/14 09:06:12;;;;;;;10.00;7.73;;;5.40;91.40;;;4.83;84.56;98224.16;5084785;28;20628;-74
2021/01/14 09:08:40;;;;;;;12.40;7.47;;;5.30;91.50;;;4.84;83.95;98228.38;5066042;28;20639;-74
2021/01/14 09:11:08;;;;;;;13.53;8.87;;;5.30;91.60;;;4.82;84.07;98225.03;5065052;28;20646;-74
2021/01/14 09:13:36;;;;;;;13.03;8.83;;;5.30;91.60;;;4.86;85.17;98230.00;5074981;28;20694;-74
2021/01/14 09:16:10;;;;;;;11.23;7.93;;;5.30;91.60;;;4.92;84.74;98240.06;5068490;28;20636;-74
2021/01/14 09:18:40;;;;;;;8.37;7.43;;;5.40;92.00;;;4.97;83.98;98247.63;5047909;28;20628;-74
2021/01/14 09:21:09;;;;;;;9.83;6.87;;;5.40;91.50;;;4.98;83.82;98250.16;5065686;28;20626;-73
2021/01/14 09:23:38;;;;;;;9.50;7.10;;;5.50;91.40;;;5.01;84.48;98249.19;5088658;28;20647;-73
2021/01/14 09:26:12;;;;;;;11.17;7.80;;;5.50;91.30;;;5.02;83.91;98253.41;5067761;28;21086;-73
2021/01/14 09:28:47;;;;;;;11.20;7.50;;;5.50;91.20;;;5.04;83.87;98274.88;5067009;28;20640;-73
2021/01/14 09:31:15;;;;;;;11.53;7.67;;;5.50;91.20;;;5.05;84.02;98276.53;5063441;28;20644;-74
2021/01/14 09:33:45;;;;;;;11.30;7.20;;;5.50;91.30;;;5.10;83.57;98262.53;5065783;28;21007;-74
2021/01/14 09:36:15;;;;;;;13.00;7.90;;;5.50;91.20;;;5.18;83.06;98263.84;5067975;28;20663;-74
2021/01/14 09:38:49;;;;;;;10.77;7.47;;;5.60;91.20;;;5.23;82.56;98267.09;5059543;28;21208;-73
2021/01/14 09:41:24;;;;;;;14.13;7.73;;;5.70;90.90;;;5.27;83.02;98278.13;5068263;28;20635;-74
2021/01/14 09:43:59;;;;;;;10.90;7.07;;;5.70;90.70;;;5.26;82.62;98277.28;5064605;28;20686;-74
2021/01/14 09:46:29;;;;;;;13.10;6.93;;;5.80;90.50;;;5.30;82.64;98289.16;5068139;28;21223;-74
2021/01/14 09:49:01;;;;;;;10.13;7.90;;;5.80;90.40;;;5.34;83.02;98285.53;5061799;28;20628;-74
2021/01/14 09:51:29;;;;;;;10.30;7.40;;;5.80;90.40;;;5.39;82.66;98293.91;5062191;28;20640;-74
2021/01/14 09:53:56;;;;;;;11.83;8.20;;;5.80;90.40;;;5.42;82.39;98298.13;5054979;28;20632;-74
2021/01/14 09:56:33;;;;;;;11.70;8.33;;;5.90;90.70;;;5.47;82.02;98307.34;5061894;28;20632;-74
2021/01/14 09:59:08;;;;;;;9.13;7.17;;;5.90;90.30;;;5.52;82.33;98294.19;5078409;28;21277;-74
2021/01/14 10:01:43;;;;;;;14.33;7.50;;;6.00;90.20;;;5.62;81.21;98301.47;5069301;28;20742;-74
2021/01/14 10:04:16;;;;;;;11.70;7.53;;;6.00;90.30;;;5.63;80.87;98313.50;5071221;28;20624;-74
2021/01/14 10:06:49;;;;;;;12.60;8.50;;;6.10;89.70;;;5.63;81.46;98316.91;5084826;28;21237;-74
2021/01/14 10:09:17;;;;;;;12.20;8.80;;;6.10;89.50;;;5.67;81.44;98309.88;5069800;28;20640;-74
2021/01/14 10:11:47;;;;;;;12.60;8.67;;;6.10;89.40;;;5.65;81.01;98307.38;5062070;28;21095;-74
2021/01/14 10:14:21;;;;;;;16.00;9.57;;;6.10;89.20;;;5.69;81.32;98311.47;5070031;28;21128;-74
2021/01/14 10:16:50;;;;;;;15.10;8.70;;;6.10;89.40;;;5.71;81.14;98316.56;5067697;28;21193;-74
2021/01/14 10:19:19;;;;;;;12.60;8.87;;;6.20;89.20;;;5.72;81.48;98313.09;5073855;28;20636;-74
2021/01/14 10:21:49;;;;;;;14.27;7.57;;;6.20;89.10;;;5.74;81.11;98316.47;5067758;28;20616;-74
2021/01/14 10:24:26;;;;;;;12.47;9.43;;;6.20;88.90;;;5.78;81.01;98324.03;5068060;28;20633;-74
2021/01/14 10:26:54;;;;;;;15.70;8.97;;;6.20;88.60;;;5.79;80.89;98325.72;5066193;28;21029;-74
2021/01/14 10:29:38;;;;;;;13.60;10.80;;;6.30;88.50;;;5.80;80.45;98326.53;5069979;28;20773;-74
2021/01/14 10:32:08;;;;;;;15.13;11.80;;;6.20;88.20;;;5.88;80.33;98321.84;5054302;28;20842;-74
2021/01/14 10:34:44;;;;;;;17.73;10.53;;;6.30;88.20;;;5.94;80.48;98324.16;5071367;28;20699;-74
2021/01/14 10:37:24;;;;;;;13.80;9.60;;;6.40;88.00;;;5.96;79.92;98332.69;5066733;28;20623;-74
2021/01/14 10:39:54;;;;;;;14.03;7.63;;;6.40;87.70;;;5.94;79.77;98332.78;5067589;28;20637;-74
2021/01/14 10:42:33;;;;;;;12.67;9.97;;;6.40;87.10;;;5.93;79.55;98325.06;5064058;28;20646;-73
2021/01/14 10:45:07;;;;;;;13.53;8.30;;;6.40;86.60;;;5.90;79.16;98330.41;5058768;28;20659;-74
2021/01/14 10:47:36;;;;;;;13.57;8.17;;;6.40;85.90;;;5.84;79.25;98335.84;5085565;28;20677;-74